sensor_id;sensor_type;location;lat;lon;timestamp;temperature;humidity
14471;DHT22;7321;50.802;4.336;2024-02-21T00:00:51;10.50;99.90
14471;DHT22;7321;50.802;4.336;2024-02-21T00:03:17;10.50;99.90
14471;DHT22;7321;50.802;4.336;2024-02-21T00:05:43;10.40;99.90
14471;DHT22;7321;50.802;4.336;2024-02-21T00:08:09;10.30;99.90
14471;DHT22;7321;50.802;4.336;2024-02-21T00:10:34;10.30;99.90
14471;DHT22;7321;50.802;4.336;2024-02-21T00:13:01;10.30;99.90
14471;DHT22;7321;50.802;4.336;2024-02-21T00:15:27;10.40;99.90
14471;DHT22;7321;50.802;4.336;2024-02-21T00:17:53;10.50;99.90
14471;DHT22;7321;50.802;4.336;2024-02-21T00:20:19;10.60;99.90
14471;DHT22;7321;50.802;4.336;2024-02-21T00:22:45;10.60;99.90
14471;DHT22;7321;50.802;4.336;2024-02-21T00:25:11;10.70;99.90
14471;DHT22;7321;50.802;4.336;2024-02-21T00:27:38;10.60;99.90
14471;DHT22;7321;50.802;4.336;2024-02-21T00:30:05;10.70;99.90
14471;DHT22;7321;50.802;4.336;2024-02-21T00:32:31;10.60;99.90
14471;DHT22;7321;50.802;4.336;2024-02-21T00:34:59;10.50;99.90
14471;DHT22;7321;50.802;4.336;2024-02-21T00:37:25;10.60;99.90
14471;DHT22;7321;50.802;4.336;2024-02-21T00:39:51;10.60;99.90
14471;DHT22;7321;50.802;4.336;2024-02-21T00:42:17;10.40;99.90
14471;DHT22;7321;50.802;4.336;2024-02-21T00:44:43;10.40;99.90
14471;DHT22;7321;50.802;4.336;2024-02-21T00:47:10;10.60;99.90
14471;DHT22;7321;50.802;4.336;2024-02-21T00:49:36;10.60;99.90
14471;DHT22;7321;50.802;4.336;2024-02-21T00:52:02;10.60;99.90
14471;DHT22;7321;50.802;4.336;2024-02-21T00:54:27;10.40;99.90
14471;DHT22;7321;50.802;4.336;2024-02-21T00:56:53;10.30;99.90
14471;DHT22;7321;50.802;4.336;2024-02-21T00:59:19;10.40;99.90
14471;DHT22;7321;50.802;4.336;2024-02-21T01:01:45;10.40;99.90
14471;DHT22;7321;50.802;4.336;2024-02-21T01:04:11;10.40;99.90
14471;DHT22;7321;50.802;4.336;2024-02-21T01:06:36;10.50;99.90
14471;DHT22;7321;50.802;4.336;2024-02-21T01:09:02;10.50;99.90
14471;DHT22;7321;50.802;4.336;2024-02-21T01:11:28;10.30;99.90
14471;DHT22;7321;50.802;4.336;2024-02-21T01:13:55;10.40;99.90
14471;DHT22;7321;50.802;4.336;2024-02-21T01:16:21;10.50;99.90
14471;DHT22;7321;50.802;4.336;2024-02-21T01:18:47;10.60;99.90
14471;DHT22;7321;50.802;4.336;2024-02-21T01:21:12;10.50;99.90
14471;DHT22;7321;50.802;4.336;2024-02-21T01:23:39;10.30;99.90
14471;DHT22;7321;50.802;4.336;2024-02-21T01:26:05;10.30;99.90
14471;DHT22;7321;50.802;4.336;2024-02-21T01:28:34;10.20;99.90
14471;DHT22;7321;50.802;4.336;2024-02-21T01:31:01;10.10;99.90
14471;DHT22;7321;50.802;4.336;2024-02-21T01:33:26;10.10;99.90
14471;DHT22;7321;50.802;4.336;2024-02-21T01:35:52;10.00;99.90
14471;DHT22;7321;50.802;4.336;2024-02-21T01:38:18;9.90;99.90
14471;DHT22;7321;50.802;4.336;2024-02-21T01:40:44;9.90;99.90
14471;DHT22;7321;50.802;4.336;2024-02-21T01:43:17;10.00;99.90
14471;DHT22;7321;50.802;4.336;2024-02-21T01:45:50;10.00;99.90
14471;DHT22;7321;50.802;4.336;2024-02-21T01:48:18;9.90;99.90
14471;DHT22;7321;50.802;4.336;2024-02-21T01:50:48;10.00;99.90
14471;DHT22;7321;50.802;4.336;2024-02-21T01:53:30;10.20;99.90
14471;DHT22;7321;50.802;4.336;2024-02-21T01:55:56;10.10;99.90
14471;DHT22;7321;50.802;4.336;2024-02-21T01:58:23;10.00;99.90
14471;DHT22;7321;50.802;4.336;2024-02-21T02:00:50;10.10;99.90
14471;DHT22;7321;50.802;4.336;2024-02-21T02:03:16;10.20;99.90
14471;DHT22;7321;50.802;4.336;2024-02-21T02:05:46;10.10;99.90
14471;DHT22;7321;50.802;4.336;2024-02-21T02:08:14;10.00;99.90
14471;DHT22;7321;50.802;4.336;2024-02-21T02:10:40;10.00;99.90
14471;DHT22;7321;50.802;4.336;2024-02-21T02:13:06;10.20;99.90
14471;DHT22;7321;50.802;4.336;2024-02-21T02:15:58;10.20;99.90
14471;DHT22;7321;50.802;4.336;2024-02-21T02:18:24;10.20;99.90
14471;DHT22;7321;50.802;4.336;2024-02-21T02:20:50;10.10;99.90
14471;DHT22;7321;50.802;4.336;2024-02-21T02:23:25;10.10;99.90
14471;DHT22;7321;50.802;4.336;2024-02-21T02:25:51;10.00;99.90
14471;DHT22;7321;50.802;4.336;2024-02-21T02:28:18;10.00;99.90
14471;DHT22;7321;50.802;4.336;2024-02-21T02:30:44;9.90;99.90
14471;DHT22;7321;50.802;4.336;2024-02-21T02:33:09;9.80;99.90
14471;DHT22;7321;50.802;4.336;2024-02-21T02:35:36;9.80;99.90
14471;DHT22;7321;50.802;4.336;2024-02-21T02:38:02;9.80;99.90
14471;DHT22;7321;50.802;4.336;2024-02-21T02:40:28;10.00;99.90
14471;DHT22;7321;50.802;4.336;2024-02-21T02:42:54;10.10;99.90
14471;DHT22;7321;50.802;4.336;2024-02-21T02:45:21;10.10;99.90
14471;DHT22;7321;50.802;4.336;2024-02-21T02:47:52;10.20;99.90
14471;DHT22;7321;50.802;4.336;2024-02-21T02:50:20;10.30;99.90
14471;DHT22;7321;50.802;4.336;2024-02-21T02:52:45;10.30;99.90
14471;DHT22;7321;50.802;4.336;2024-02-21T02:55:11;10.40;99.90
14471;DHT22;7321;50.802;4.336;2024-02-21T02:57:37;10.40;99.90
14471;DHT22;7321;50.802;4.336;2024-02-21T03:00:04;10.20;99.90
14471;DHT22;7321;50.802;4.336;2024-02-21T03:02:30;10.30;99.90
14471;DHT22;7321;50.802;4.336;2024-02-21T03:04:57;10.30;99.90
14471;DHT22;7321;50.802;4.336;2024-02-21T03:07:24;10.20;99.90
14471;DHT22;7321;50.802;4.336;2024-02-21T03:09:50;10.20;99.90
14471;DHT22;7321;50.802;4.336;2024-02-21T03:12:16;10.30;99.90
14471;DHT22;7321;50.802;4.336;2024-02-21T03:14:50;10.40;99.90
14471;DHT22;7321;50.802;4.336;2024-02-21T03:17:16;10.30;99.90
14471;DHT22;7321;50.802;4.336;2024-02-21T03:19:42;10.20;99.90
14471;DHT22;7321;50.802;4.336;2024-02-21T03:22:07;10.00;99.90
14471;DHT22;7321;50.802;4.336;2024-02-21T03:24:33;10.00;99.90
14471;DHT22;7321;50.802;4.336;2024-02-21T03:26:59;10.20;99.90
14471;DHT22;7321;50.802;4.336;2024-02-21T03:29:25;10.20;99.90
14471;DHT22;7321;50.802;4.336;2024-02-21T03:31:51;10.30;99.90
14471;DHT22;7321;50.802;4.336;2024-02-21T03:34:17;10.20;99.90
14471;DHT22;7321;50.802;4.336;2024-02-21T03:36:42;10.30;99.90
14471;DHT22;7321;50.802;4.336;2024-02-21T03:39:08;10.40;99.90
14471;DHT22;7321;50.802;4.336;2024-02-21T03:41:35;10.30;99.90
14471;DHT22;7321;50.802;4.336;2024-02-21T03:44:01;10.50;99.90
14471;DHT22;7321;50.802;4.336;2024-02-21T03:46:27;10.40;99.90
14471;DHT22;7321;50.802;4.336;2024-02-21T03:48:53;10.40;99.90
14471;DHT22;7321;50.802;4.336;2024-02-21T03:51:19;10.40;99.90
14471;DHT22;7321;50.802;4.336;2024-02-21T03:53:44;10.60;99.90
14471;DHT22;7321;50.802;4.336;2024-02-21T03:56:11;10.60;99.90
14471;DHT22;7321;50.802;4.336;2024-02-21T03:58:37;10.50;99.90
14471;DHT22;7321;50.802;4.336;2024-02-21T04:01:03;10.50;99.90
14471;DHT22;7321;50.802;4.336;2024-02-21T04:03:30;10.30;99.90
14471;DHT22;7321;50.802;4.336;2024-02-21T04:05:56;10.40;99.90
14471;DHT22;7321;50.802;4.336;2024-02-21T04:08:22;10.40;99.90
14471;DHT22;7321;50.802;4.336;2024-02-21T04:10:49;10.30;99.90
14471;DHT22;7321;50.802;4.336;2024-02-21T04:13:14;10.10;99.90
14471;DHT22;7321;50.802;4.336;2024-02-21T04:15:40;10.20;99.90
14471;DHT22;7321;50.802;4.336;2024-02-21T04:18:06;10.30;99.90
14471;DHT22;7321;50.802;4.336;2024-02-21T04:20:34;10.30;99.90
14471;DHT22;7321;50.802;4.336;2024-02-21T04:23:00;10.30;99.90
14471;DHT22;7321;50.802;4.336;2024-02-21T04:25:25;10.30;99.90
14471;DHT22;7321;50.802;4.336;2024-02-21T04:27:51;10.40;99.90
14471;DHT22;7321;50.802;4.336;2024-02-21T04:30:17;10.30;99.90
14471;DHT22;7321;50.802;4.336;2024-02-21T04:32:43;10.20;99.90
14471;DHT22;7321;50.802;4.336;2024-02-21T04:35:09;10.20;99.90
14471;DHT22;7321;50.802;4.336;2024-02-21T04:37:35;10.30;99.90
14471;DHT22;7321;50.802;4.336;2024-02-21T04:40:01;10.30;99.90
14471;DHT22;7321;50.802;4.336;2024-02-21T04:42:26;10.20;99.90
14471;DHT22;7321;50.802;4.336;2024-02-21T04:44:52;10.30;99.90
14471;DHT22;7321;50.802;4.336;2024-02-21T04:47:19;10.20;99.90
14471;DHT22;7321;50.802;4.336;2024-02-21T04:49:49;10.10;99.90
14471;DHT22;7321;50.802;4.336;2024-02-21T04:52:15;10.10;99.90
14471;DHT22;7321;50.802;4.336;2024-02-21T04:54:40;10.10;99.90
14471;DHT22;7321;50.802;4.336;2024-02-21T04:57:06;10.30;99.90
14471;DHT22;7321;50.802;4.336;2024-02-21T04:59:32;10.20;99.90
14471;DHT22;7321;50.802;4.336;2024-02-21T05:01:58;10.10;99.90
14471;DHT22;7321;50.802;4.336;2024-02-21T05:04:24;10.10;99.90
14471;DHT22;7321;50.802;4.336;2024-02-21T05:06:50;10.10;99.90
14471;DHT22;7321;50.802;4.336;2024-02-21T05:09:15;10.10;99.90
14471;DHT22;7321;50.802;4.336;2024-02-21T05:11:41;10.20;99.90
14471;DHT22;7321;50.802;4.336;2024-02-21T05:14:07;10.30;99.90
14471;DHT22;7321;50.802;4.336;2024-02-21T05:16:33;10.40;99.90
14471;DHT22;7321;50.802;4.336;2024-02-21T05:18:59;10.20;99.90
14471;DHT22;7321;50.802;4.336;2024-02-21T05:21:25;10.20;99.90
14471;DHT22;7321;50.802;4.336;2024-02-21T05:23:51;10.30;99.90
14471;DHT22;7321;50.802;4.336;2024-02-21T05:26:24;10.30;99.90
14471;DHT22;7321;50.802;4.336;2024-02-21T05:28:50;10.40;99.90
14471;DHT22;7321;50.802;4.336;2024-02-21T05:31:18;10.30;99.90
14471;DHT22;7321;50.802;4.336;2024-02-21T05:33:44;10.10;99.90
14471;DHT22;7321;50.802;4.336;2024-02-21T05:36:11;10.20;99.90
14471;DHT22;7321;50.802;4.336;2024-02-21T05:38:37;10.10;99.90
14471;DHT22;7321;50.802;4.336;2024-02-21T05:41:03;10.20;99.90
14471;DHT22;7321;50.802;4.336;2024-02-21T05:43:29;10.40;99.90
14471;DHT22;7321;50.802;4.336;2024-02-21T05:45:55;10.40;99.90
14471;DHT22;7321;50.802;4.336;2024-02-21T05:48:22;10.30;99.90
14471;DHT22;7321;50.802;4.336;2024-02-21T05:50:48;10.30;99.90
14471;DHT22;7321;50.802;4.336;2024-02-21T05:53:14;10.20;99.90
14471;DHT22;7321;50.802;4.336;2024-02-21T05:55:40;10.30;99.90
14471;DHT22;7321;50.802;4.336;2024-02-21T05:58:06;10.40;99.90
14471;DHT22;7321;50.802;4.336;2024-02-21T06:00:33;10.30;99.90
14471;DHT22;7321;50.802;4.336;2024-02-21T06:02:59;10.20;99.90
14471;DHT22;7321;50.802;4.336;2024-02-21T06:05:25;10.30;99.90
14471;DHT22;7321;50.802;4.336;2024-02-21T06:07:51;10.30;99.90
14471;DHT22;7321;50.802;4.336;2024-02-21T06:10:16;10.30;99.90
14471;DHT22;7321;50.802;4.336;2024-02-21T06:12:42;10.40;99.90
14471;DHT22;7321;50.802;4.336;2024-02-21T06:15:08;10.20;99.90
14471;DHT22;7321;50.802;4.336;2024-02-21T06:17:34;10.10;99.90
14471;DHT22;7321;50.802;4.336;2024-02-21T06:20:00;10.20;99.90
14471;DHT22;7321;50.802;4.336;2024-02-21T06:22:26;10.30;99.90
14471;DHT22;7321;50.802;4.336;2024-02-21T06:24:52;10.40;99.90
14471;DHT22;7321;50.802;4.336;2024-02-21T06:27:19;10.20;99.90
14471;DHT22;7321;50.802;4.336;2024-02-21T06:29:45;10.10;99.90
14471;DHT22;7321;50.802;4.336;2024-02-21T06:32:11;10.20;99.90
14471;DHT22;7321;50.802;4.336;2024-02-21T06:34:37;10.10;99.90
14471;DHT22;7321;50.802;4.336;2024-02-21T06:37:03;10.20;99.90
14471;DHT22;7321;50.802;4.336;2024-02-21T06:39:29;10.30;99.90
14471;DHT22;7321;50.802;4.336;2024-02-21T06:41:55;10.10;99.90
14471;DHT22;7321;50.802;4.336;2024-02-21T06:44:21;10.10;99.90
14471;DHT22;7321;50.802;4.336;2024-02-21T06:46:47;10.30;99.90
14471;DHT22;7321;50.802;4.336;2024-02-21T06:49:13;10.30;99.90
14471;DHT22;7321;50.802;4.336;2024-02-21T06:51:47;10.30;99.90
14471;DHT22;7321;50.802;4.336;2024-02-21T06:54:13;10.10;99.90
14471;DHT22;7321;50.802;4.336;2024-02-21T06:56:40;10.20;99.90
14471;DHT22;7321;50.802;4.336;2024-02-21T06:59:06;10.20;99.90
14471;DHT22;7321;50.802;4.336;2024-02-21T07:01:32;10.00;99.90
14471;DHT22;7321;50.802;4.336;2024-02-21T07:03:58;9.90;99.90
14471;DHT22;7321;50.802;4.336;2024-02-21T07:06:24;9.90;99.90
14471;DHT22;7321;50.802;4.336;2024-02-21T07:08:50;9.80;99.90
14471;DHT22;7321;50.802;4.336;2024-02-21T07:11:16;9.80;99.90
14471;DHT22;7321;50.802;4.336;2024-02-21T07:13:41;9.90;99.90
14471;DHT22;7321;50.802;4.336;2024-02-21T07:16:07;9.90;99.90
14471;DHT22;7321;50.802;4.336;2024-02-21T07:18:34;9.90;99.90
14471;DHT22;7321;50.802;4.336;2024-02-21T07:20:59;9.80;99.90
14471;DHT22;7321;50.802;4.336;2024-02-21T07:23:25;9.80;99.90
14471;DHT22;7321;50.802;4.336;2024-02-21T07:25:51;9.90;99.90
14471;DHT22;7321;50.802;4.336;2024-02-21T07:28:17;9.90;99.90
14471;DHT22;7321;50.802;4.336;2024-02-21T07:30:43;9.90;99.90
14471;DHT22;7321;50.802;4.336;2024-02-21T07:33:09;9.90;99.90
14471;DHT22;7321;50.802;4.336;2024-02-21T07:35:35;9.80;99.90
14471;DHT22;7321;50.802;4.336;2024-02-21T07:38:06;9.90;99.90
14471;DHT22;7321;50.802;4.336;2024-02-21T07:40:32;9.80;99.90
14471;DHT22;7321;50.802;4.336;2024-02-21T07:42:58;9.80;99.90
14471;DHT22;7321;50.802;4.336;2024-02-21T07:45:24;9.80;99.90
14471;DHT22;7321;50.802;4.336;2024-02-21T07:47:50;10.00;99.90
14471;DHT22;7321;50.802;4.336;2024-02-21T07:50:16;9.80;99.90
14471;DHT22;7321;50.802;4.336;2024-02-21T07:52:43;9.70;99.90
14471;DHT22;7321;50.802;4.336;2024-02-21T07:55:09;9.60;99.90
14471;DHT22;7321;50.802;4.336;2024-02-21T07:57:36;9.70;99.90
14471;DHT22;7321;50.802;4.336;2024-02-21T08:00:02;9.70;99.90
14471;DHT22;7321;50.802;4.336;2024-02-21T08:02:30;9.80;99.90
14471;DHT22;7321;50.802;4.336;2024-02-21T08:04:55;9.90;99.90
14471;DHT22;7321;50.802;4.336;2024-02-21T08:07:21;9.90;99.90
14471;DHT22;7321;50.802;4.336;2024-02-21T08:09:47;10.00;99.90
14471;DHT22;7321;50.802;4.336;2024-02-21T08:12:13;10.00;99.90
14471;DHT22;7321;50.802;4.336;2024-02-21T08:14:39;9.90;99.90
14471;DHT22;7321;50.802;4.336;2024-02-21T08:17:05;10.10;99.90
14471;DHT22;7321;50.802;4.336;2024-02-21T08:19:31;10.10;99.90
14471;DHT22;7321;50.802;4.336;2024-02-21T08:21:56;10.00;99.90
14471;DHT22;7321;50.802;4.336;2024-02-21T08:24:22;10.00;99.90
14471;DHT22;7321;50.802;4.336;2024-02-21T08:26:48;10.20;99.90
14471;DHT22;7321;50.802;4.336;2024-02-21T08:29:14;10.20;99.90
14471;DHT22;7321;50.802;4.336;2024-02-21T08:31:40;10.40;99.90
14471;DHT22;7321;50.802;4.336;2024-02-21T08:34:06;10.30;99.90
14471;DHT22;7321;50.802;4.336;2024-02-21T08:36:33;10.30;99.90
14471;DHT22;7321;50.802;4.336;2024-02-21T08:39:00;10.30;99.90
14471;DHT22;7321;50.802;4.336;2024-02-21T08:41:26;10.20;99.90
14471;DHT22;7321;50.802;4.336;2024-02-21T08:43:53;10.20;99.90
14471;DHT22;7321;50.802;4.336;2024-02-21T08:46:20;10.10;99.90
14471;DHT22;7321;50.802;4.336;2024-02-21T08:48:46;10.10;99.90
14471;DHT22;7321;50.802;4.336;2024-02-21T08:51:15;10.30;99.90
14471;DHT22;7321;50.802;4.336;2024-02-21T08:53:41;10.10;99.90
14471;DHT22;7321;50.802;4.336;2024-02-21T08:56:07;10.10;99.90
14471;DHT22;7321;50.802;4.336;2024-02-21T08:58:34;10.00;99.90
14471;DHT22;7321;50.802;4.336;2024-02-21T09:01:01;10.20;99.90
14471;DHT22;7321;50.802;4.336;2024-02-21T09:03:26;10.40;99.90
14471;DHT22;7321;50.802;4.336;2024-02-21T09:05:53;10.40;99.90
14471;DHT22;7321;50.802;4.336;2024-02-21T09:08:18;10.40;99.90
14471;DHT22;7321;50.802;4.336;2024-02-21T09:10:44;10.30;99.90
14471;DHT22;7321;50.802;4.336;2024-02-21T09:13:10;10.30;99.90
14471;DHT22;7321;50.802;4.336;2024-02-21T09:15:36;10.30;99.90
14471;DHT22;7321;50.802;4.336;2024-02-21T09:18:02;10.30;99.90
14471;DHT22;7321;50.802;4.336;2024-02-21T09:20:28;10.30;99.90
14471;DHT22;7321;50.802;4.336;2024-02-21T09:22:54;10.40;99.90
14471;DHT22;7321;50.802;4.336;2024-02-21T09:25:20;10.40;99.90
14471;DHT22;7321;50.802;4.336;2024-02-21T09:27:46;10.60;99.90
14471;DHT22;7321;50.802;4.336;2024-02-21T09:30:12;10.50;99.90
14471;DHT22;7321;50.802;4.336;2024-02-21T09:32:38;10.50;99.90
14471;DHT22;7321;50.802;4.336;2024-02-21T09:35:04;10.30;99.90
14471;DHT22;7321;50.802;4.336;2024-02-21T09:37:33;10.40;99.90
14471;DHT22;7321;50.802;4.336;2024-02-21T09:39:59;10.60;99.90
14471;DHT22;7321;50.802;4.336;2024-02-21T09:42:38;10.70;99.90
14471;DHT22;7321;50.802;4.336;2024-02-21T09:45:21;10.70;99.90
14471;DHT22;7321;50.802;4.336;2024-02-21T09:47:57;10.60;99.90
14471;DHT22;7321;50.802;4.336;2024-02-21T09:50:26;10.60;99.90
14471;DHT22;7321;50.802;4.336;2024-02-21T09:52:54;10.70;99.90
14471;DHT22;7321;50.802;4.336;2024-02-21T09:55:21;10.70;99.90
14471;DHT22;7321;50.802;4.336;2024-02-21T09:57:50;10.80;99.90
14471;DHT22;7321;50.802;4.336;2024-02-21T10:00:16;10.80;99.90
14471;DHT22;7321;50.802;4.336;2024-02-21T10:02:50;10.80;99.90
14471;DHT22;7321;50.802;4.336;2024-02-21T10:05:16;10.70;99.90
14471;DHT22;7321;50.802;4.336;2024-02-21T10:07:43;10.70;99.90
14471;DHT22;7321;50.802;4.336;2024-02-21T10:10:10;10.80;99.90
14471;DHT22;7321;50.802;4.336;2024-02-21T10:12:35;10.80;99.90
14471;DHT22;7321;50.802;4.336;2024-02-21T10:15:05;10.90;99.90
14471;DHT22;7321;50.802;4.336;2024-02-21T10:17:35;10.90;99.90
14471;DHT22;7321;50.802;4.336;2024-02-21T10:20:09;11.00;99.90
14471;DHT22;7321;50.802;4.336;2024-02-21T10:22:35;11.20;99.90
14471;DHT22;7321;50.802;4.336;2024-02-21T10:25:12;11.20;99.90
14471;DHT22;7321;50.802;4.336;2024-02-21T10:27:41;11.10;99.90
14471;DHT22;7321;50.802;4.336;2024-02-21T10:30:12;11.30;99.90
14471;DHT22;7321;50.802;4.336;2024-02-21T10:32:49;11.20;99.90
14471;DHT22;7321;50.802;4.336;2024-02-21T10:35:28;11.30;99.90
14471;DHT22;7321;50.802;4.336;2024-02-21T10:37:56;11.20;99.90
14471;DHT22;7321;50.802;4.336;2024-02-21T10:40:30;11.30;99.90
14471;DHT22;7321;50.802;4.336;2024-02-21T10:42:58;11.30;99.90
14471;DHT22;7321;50.802;4.336;2024-02-21T10:45:32;11.40;99.90
14471;DHT22;7321;50.802;4.336;2024-02-21T10:48:21;11.20;99.90
14471;DHT22;7321;50.802;4.336;2024-02-21T10:56:31;11.30;99.90
14471;DHT22;7321;50.802;4.336;2024-02-21T10:58:58;11.40;99.90
14471;DHT22;7321;50.802;4.336;2024-02-21T11:01:24;11.50;99.90
14471;DHT22;7321;50.802;4.336;2024-02-21T11:03:54;11.50;99.90
14471;DHT22;7321;50.802;4.336;2024-02-21T11:06:21;11.60;99.90
14471;DHT22;7321;50.802;4.336;2024-02-21T11:08:58;11.40;99.90
14471;DHT22;7321;50.802;4.336;2024-02-21T11:11:24;11.40;99.90
14471;DHT22;7321;50.802;4.336;2024-02-21T11:13:50;11.50;99.90
14471;DHT22;7321;50.802;4.336;2024-02-21T11:16:22;11.40;99.90
14471;DHT22;7321;50.802;4.336;2024-02-21T11:18:49;11.30;99.90
14471;DHT22;7321;50.802;4.336;2024-02-21T11:21:15;11.40;99.90
14471;DHT22;7321;50.802;4.336;2024-02-21T11:23:41;11.30;99.90
14471;DHT22;7321;50.802;4.336;2024-02-21T11:26:18;11.20;99.90
14471;DHT22;7321;50.802;4.336;2024-02-21T11:31:25;11.00;99.90
14471;DHT22;7321;50.802;4.336;2024-02-21T11:33:53;11.10;99.90
14471;DHT22;7321;50.802;4.336;2024-02-21T11:36:24;11.10;99.90
14471;DHT22;7321;50.802;4.336;2024-02-21T11:38:51;11.10;99.90
14471;DHT22;7321;50.802;4.336;2024-02-21T11:41:16;11.10;99.90
14471;DHT22;7321;50.802;4.336;2024-02-21T11:43:42;11.10;99.90
14471;DHT22;7321;50.802;4.336;2024-02-21T11:46:08;11.10;99.90
14471;DHT22;7321;50.802;4.336;2024-02-21T11:48:35;11.10;99.90
14471;DHT22;7321;50.802;4.336;2024-02-21T11:51:00;11.00;99.90
14471;DHT22;7321;50.802;4.336;2024-02-21T11:53:26;11.00;99.90
14471;DHT22;7321;50.802;4.336;2024-02-21T11:55:56;11.00;99.90
14471;DHT22;7321;50.802;4.336;2024-02-21T11:58:22;11.00;99.90
14471;DHT22;7321;50.802;4.336;2024-02-21T12:00:48;10.90;99.90
14471;DHT22;7321;50.802;4.336;2024-02-21T12:03:15;10.90;99.90
14471;DHT22;7321;50.802;4.336;2024-02-21T12:05:44;11.00;99.90
14471;DHT22;7321;50.802;4.336;2024-02-21T12:08:12;11.00;99.90
14471;DHT22;7321;50.802;4.336;2024-02-21T12:10:38;11.10;99.90
14471;DHT22;7321;50.802;4.336;2024-02-21T12:13:08;11.10;99.90
14471;DHT22;7321;50.802;4.336;2024-02-21T12:15:34;11.10;99.90
14471;DHT22;7321;50.802;4.336;2024-02-21T12:18:00;11.00;99.90
14471;DHT22;7321;50.802;4.336;2024-02-21T12:20:26;10.90;99.90
14471;DHT22;7321;50.802;4.336;2024-02-21T12:22:52;10.90;99.90
14471;DHT22;7321;50.802;4.336;2024-02-21T12:25:21;11.00;99.90
14471;DHT22;7321;50.802;4.336;2024-02-21T12:27:52;11.10;99.90
14471;DHT22;7321;50.802;4.336;2024-02-21T12:30:18;10.90;99.90
14471;DHT22;7321;50.802;4.336;2024-02-21T12:32:46;10.90;99.90
14471;DHT22;7321;50.802;4.336;2024-02-21T12:35:12;11.00;99.90
14471;DHT22;7321;50.802;4.336;2024-02-21T12:37:37;11.10;99.90
14471;DHT22;7321;50.802;4.336;2024-02-21T12:40:05;11.00;99.90
14471;DHT22;7321;50.802;4.336;2024-02-21T12:42:33;11.00;99.90
14471;DHT22;7321;50.802;4.336;2024-02-21T12:44:59;11.10;99.90
14471;DHT22;7321;50.802;4.336;2024-02-21T12:47:25;11.10;99.90
14471;DHT22;7321;50.802;4.336;2024-02-21T12:49:55;11.20;99.90
14471;DHT22;7321;50.802;4.336;2024-02-21T12:52:21;11.10;99.90
14471;DHT22;7321;50.802;4.336;2024-02-21T12:54:47;11.20;99.90
14471;DHT22;7321;50.802;4.336;2024-02-21T12:57:13;11.20;99.90
14471;DHT22;7321;50.802;4.336;2024-02-21T12:59:39;11.30;99.90
14471;DHT22;7321;50.802;4.336;2024-02-21T13:02:05;11.40;99.90
14471;DHT22;7321;50.802;4.336;2024-02-21T13:04:31;11.40;99.90
14471;DHT22;7321;50.802;4.336;2024-02-21T13:06:57;11.40;99.90
14471;DHT22;7321;50.802;4.336;2024-02-21T13:09:23;11.50;99.90
14471;DHT22;7321;50.802;4.336;2024-02-21T13:11:49;11.50;99.90
14471;DHT22;7321;50.802;4.336;2024-02-21T13:14:16;11.50;99.90
14471;DHT22;7321;50.802;4.336;2024-02-21T13:16:42;11.40;99.90
14471;DHT22;7321;50.802;4.336;2024-02-21T13:19:08;11.30;99.90
14471;DHT22;7321;50.802;4.336;2024-02-21T13:21:35;11.40;99.90
14471;DHT22;7321;50.802;4.336;2024-02-21T13:24:01;11.30;99.90
14471;DHT22;7321;50.802;4.336;2024-02-21T13:26:27;11.30;99.90
14471;DHT22;7321;50.802;4.336;2024-02-21T13:28:54;11.30;99.90
14471;DHT22;7321;50.802;4.336;2024-02-21T13:31:20;11.30;99.90
14471;DHT22;7321;50.802;4.336;2024-02-21T13:33:46;11.20;99.90
14471;DHT22;7321;50.802;4.336;2024-02-21T13:36:12;11.20;99.90
14471;DHT22;7321;50.802;4.336;2024-02-21T13:38:38;11.10;99.90
14471;DHT22;7321;50.802;4.336;2024-02-21T13:41:07;11.00;99.90
14471;DHT22;7321;50.802;4.336;2024-02-21T13:43:33;11.20;99.90
14471;DHT22;7321;50.802;4.336;2024-02-21T13:46:01;11.20;99.90
14471;DHT22;7321;50.802;4.336;2024-02-21T13:48:28;11.10;99.90
14471;DHT22;7321;50.802;4.336;2024-02-21T13:50:55;11.10;99.90
14471;DHT22;7321;50.802;4.336;2024-02-21T13:53:21;11.20;99.90
14471;DHT22;7321;50.802;4.336;2024-02-21T13:55:48;11.20;99.90
14471;DHT22;7321;50.802;4.336;2024-02-21T13:58:15;11.30;99.90
14471;DHT22;7321;50.802;4.336;2024-02-21T14:00:41;11.30;99.90
14471;DHT22;7321;50.802;4.336;2024-02-21T14:03:07;11.30;99.90
14471;DHT22;7321;50.802;4.336;2024-02-21T14:05:33;11.30;99.90
14471;DHT22;7321;50.802;4.336;2024-02-21T14:07:59;11.20;99.90
14471;DHT22;7321;50.802;4.336;2024-02-21T14:10:25;11.20;99.90
14471;DHT22;7321;50.802;4.336;2024-02-21T14:12:51;11.20;99.90
14471;DHT22;7321;50.802;4.336;2024-02-21T14:15:17;11.10;99.90
14471;DHT22;7321;50.802;4.336;2024-02-21T14:17:43;11.10;99.90
14471;DHT22;7321;50.802;4.336;2024-02-21T14:20:09;11.10;99.90
14471;DHT22;7321;50.802;4.336;2024-02-21T14:22:35;11.10;99.90
14471;DHT22;7321;50.802;4.336;2024-02-21T14:25:03;11.00;99.90
14471;DHT22;7321;50.802;4.336;2024-02-21T14:27:32;11.00;99.90
14471;DHT22;7321;50.802;4.336;2024-02-21T14:29:58;10.90;99.90
14471;DHT22;7321;50.802;4.336;2024-02-21T14:32:24;10.90;99.90
14471;DHT22;7321;50.802;4.336;2024-02-21T14:34:52;10.90;99.90
14471;DHT22;7321;50.802;4.336;2024-02-21T14:37:18;10.70;99.90
14471;DHT22;7321;50.802;4.336;2024-02-21T14:39:43;10.60;99.90
14471;DHT22;7321;50.802;4.336;2024-02-21T14:42:09;10.50;99.90
14471;DHT22;7321;50.802;4.336;2024-02-21T14:44:35;10.40;99.90
14471;DHT22;7321;50.802;4.336;2024-02-21T14:47:03;10.40;99.90
14471;DHT22;7321;50.802;4.336;2024-02-21T14:49:31;10.40;99.90
14471;DHT22;7321;50.802;4.336;2024-02-21T14:51:57;10.50;99.90
14471;DHT22;7321;50.802;4.336;2024-02-21T14:54:23;10.40;99.90
14471;DHT22;7321;50.802;4.336;2024-02-21T14:56:49;10.30;99.90
14471;DHT22;7321;50.802;4.336;2024-02-21T14:59:15;10.30;99.90
14471;DHT22;7321;50.802;4.336;2024-02-21T15:01:42;10.30;99.90
14471;DHT22;7321;50.802;4.336;2024-02-21T15:04:08;10.20;99.90
14471;DHT22;7321;50.802;4.336;2024-02-21T15:06:34;10.20;99.90
14471;DHT22;7321;50.802;4.336;2024-02-21T15:09:03;10.20;99.90
14471;DHT22;7321;50.802;4.336;2024-02-21T15:11:29;10.10;99.90
14471;DHT22;7321;50.802;4.336;2024-02-21T15:13:55;10.10;99.90
14471;DHT22;7321;50.802;4.336;2024-02-21T15:16:22;10.00;99.90
14471;DHT22;7321;50.802;4.336;2024-02-21T15:18:48;10.10;99.90
14471;DHT22;7321;50.802;4.336;2024-02-21T15:21:14;10.10;99.90
14471;DHT22;7321;50.802;4.336;2024-02-21T15:23:41;10.20;99.90
14471;DHT22;7321;50.802;4.336;2024-02-21T15:26:07;10.00;99.90
14471;DHT22;7321;50.802;4.336;2024-02-21T15:28:33;10.10;99.90
14471;DHT22;7321;50.802;4.336;2024-02-21T15:30:58;10.00;99.90
14471;DHT22;7321;50.802;4.336;2024-02-21T15:33:24;10.10;99.90
14471;DHT22;7321;50.802;4.336;2024-02-21T15:35:51;10.10;99.90
14471;DHT22;7321;50.802;4.336;2024-02-21T15:38:17;10.10;99.90
14471;DHT22;7321;50.802;4.336;2024-02-21T15:40:45;10.00;99.90
14471;DHT22;7321;50.802;4.336;2024-02-21T15:43:14;10.00;99.90
14471;DHT22;7321;50.802;4.336;2024-02-21T15:45:39;10.10;99.90
14471;DHT22;7321;50.802;4.336;2024-02-21T15:48:07;10.00;99.90
14471;DHT22;7321;50.802;4.336;2024-02-21T15:50:33;10.00;99.90
14471;DHT22;7321;50.802;4.336;2024-02-21T15:52:58;10.10;99.90